sensor_id;sensor_type;location;lat;lon;timestamp;P1;durP1;ratioP1;P2;durP2;ratioP2
29546;SDS011;40782;47.264;11.330;2023-01-28T00:00:50;28.35;;;17.08;;
29546;SDS011;40782;47.264;11.330;2023-01-28T00:03:17;27.50;;;17.02;;
29546;SDS011;40782;47.264;11.330;2023-01-28T00:05:44;28.80;;;17.05;;
29546;SDS011;40782;47.264;11.330;2023-01-28T00:08:11;27.85;;;17.48;;
29546;SDS011;40782;47.264;11.330;2023-01-28T00:10:40;25.17;;;17.27;;
29546;SDS011;40782;47.264;11.330;2023-01-28T00:13:08;29.45;;;18.42;;
29546;SDS011;40782;47.264;11.330;2023-01-28T00:15:39;27.98;;;16.63;;
29546;SDS011;40782;47.264;11.330;2023-01-28T00:18:06;30.15;;;18.20;;
29546;SDS011;40782;47.264;11.330;2023-01-28T00:20:33;27.00;;;17.10;;
29546;SDS011;40782;47.264;11.330;2023-01-28T00:23:00;28.38;;;18.33;;
29546;SDS011;40782;47.264;11.330;2023-01-28T00:25:27;27.50;;;17.85;;
29546;SDS011;40782;47.264;11.330;2023-01-28T00:27:56;29.02;;;18.30;;
29546;SDS011;40782;47.264;11.330;2023-01-28T00:30:23;28.40;;;17.60;;
29546;SDS011;40782;47.264;11.330;2023-01-28T00:32:52;27.85;;;17.98;;
29546;SDS011;40782;47.264;11.330;2023-01-28T00:35:20;30.35;;;18.63;;
29546;SDS011;40782;47.264;11.330;2023-01-28T00:37:47;30.13;;;18.08;;
29546;SDS011;40782;47.264;11.330;2023-01-28T00:40:15;28.85;;;19.25;;
29546;SDS011;40782;47.264;11.330;2023-01-28T00:42:42;31.67;;;19.38;;
29546;SDS011;40782;47.264;11.330;2023-01-28T00:45:11;31.33;;;19.50;;
29546;SDS011;40782;47.264;11.330;2023-01-28T00:47:38;31.10;;;20.33;;
29546;SDS011;40782;47.264;11.330;2023-01-28T00:50:05;32.10;;;19.45;;
29546;SDS011;40782;47.264;11.330;2023-01-28T00:52:33;28.25;;;19.25;;
29546;SDS011;40782;47.264;11.330;2023-01-28T00:55:00;28.23;;;19.35;;
29546;SDS011;40782;47.264;11.330;2023-01-28T00:57:27;26.77;;;18.63;;
29546;SDS011;40782;47.264;11.330;2023-01-28T00:59:54;28.52;;;19.80;;
29546;SDS011;40782;47.264;11.330;2023-01-28T01:02:23;31.42;;;19.35;;
29546;SDS011;40782;47.264;11.330;2023-01-28T01:04:50;33.22;;;21.10;;
29546;SDS011;40782;47.264;11.330;2023-01-28T01:07:27;38.42;;;21.70;;
29546;SDS011;40782;47.264;11.330;2023-01-28T01:10:05;32.58;;;20.50;;
29546;SDS011;40782;47.264;11.330;2023-01-28T01:12:34;34.05;;;19.80;;
29546;SDS011;40782;47.264;11.330;2023-01-28T01:15:01;34.22;;;21.65;;
29546;SDS011;40782;47.264;11.330;2023-01-28T01:17:30;31.92;;;20.85;;
29546;SDS011;40782;47.264;11.330;2023-01-28T01:19:57;32.63;;;20.15;;
29546;SDS011;40782;47.264;11.330;2023-01-28T01:22:24;32.22;;;19.92;;
29546;SDS011;40782;47.264;11.330;2023-01-28T01:24:51;32.35;;;19.90;;
29546;SDS011;40782;47.264;11.330;2023-01-28T01:27:18;31.92;;;20.10;;
29546;SDS011;40782;47.264;11.330;2023-01-28T01:29:45;32.08;;;20.92;;
29546;SDS011;40782;47.264;11.330;2023-01-28T01:32:12;32.28;;;20.83;;
29546;SDS011;40782;47.264;11.330;2023-01-28T01:34:41;32.15;;;21.20;;
29546;SDS011;40782;47.264;11.330;2023-01-28T01:37:08;31.38;;;20.33;;
29546;SDS011;40782;47.264;11.330;2023-01-28T01:39:35;30.58;;;20.60;;
29546;SDS011;40782;47.264;11.330;2023-01-28T01:42:03;34.45;;;21.30;;
29546;SDS011;40782;47.264;11.330;2023-01-28T01:44:50;33.08;;;20.63;;
29546;SDS011;40782;47.264;11.330;2023-01-28T01:47:22;31.92;;;21.13;;
29546;SDS011;40782;47.264;11.330;2023-01-28T01:49:54;35.88;;;22.52;;
29546;SDS011;40782;47.264;11.330;2023-01-28T01:52:23;32.38;;;20.63;;
29546;SDS011;40782;47.264;11.330;2023-01-28T01:54:54;32.67;;;21.02;;
29546;SDS011;40782;47.264;11.330;2023-01-28T01:57:27;34.05;;;21.42;;
29546;SDS011;40782;47.264;11.330;2023-01-28T01:59:57;31.02;;;20.77;;
29546;SDS011;40782;47.264;11.330;2023-01-28T02:02:31;33.60;;;21.50;;
29546;SDS011;40782;47.264;11.330;2023-01-28T02:05:03;35.38;;;21.75;;
29546;SDS011;40782;47.264;11.330;2023-01-28T02:07:32;34.25;;;22.08;;
29546;SDS011;40782;47.264;11.330;2023-01-28T02:10:00;37.22;;;20.52;;
29546;SDS011;40782;47.264;11.330;2023-01-28T02:12:28;34.30;;;21.77;;
29546;SDS011;40782;47.264;11.330;2023-01-28T02:15:00;36.17;;;22.52;;
29546;SDS011;40782;47.264;11.330;2023-01-28T02:17:30;33.28;;;22.00;;
29546;SDS011;40782;47.264;11.330;2023-01-28T02:19:58;34.70;;;22.13;;
29546;SDS011;40782;47.264;11.330;2023-01-28T02:22:39;32.30;;;20.70;;
29546;SDS011;40782;47.264;11.330;2023-01-28T02:25:40;34.28;;;23.48;;
29546;SDS011;40782;47.264;11.330;2023-01-28T02:28:27;42.30;;;24.77;;
29546;SDS011;40782;47.264;11.330;2023-01-28T02:31:02;46.22;;;28.17;;
29546;SDS011;40782;47.264;11.330;2023-01-28T02:33:34;39.55;;;24.77;;
29546;SDS011;40782;47.264;11.330;2023-01-28T02:36:08;39.25;;;25.17;;
29546;SDS011;40782;47.264;11.330;2023-01-28T02:38:43;37.75;;;24.60;;
29546;SDS011;40782;47.264;11.330;2023-01-28T02:41:14;46.63;;;26.45;;
29546;SDS011;40782;47.264;11.330;2023-01-28T02:43:49;41.20;;;24.83;;
29546;SDS011;40782;47.264;11.330;2023-01-28T02:46:17;43.00;;;25.55;;
29546;SDS011;40782;47.264;11.330;2023-01-28T02:49:05;41.70;;;25.10;;
29546;SDS011;40782;47.264;11.330;2023-01-28T02:51:39;39.35;;;24.48;;
29546;SDS011;40782;47.264;11.330;2023-01-28T02:54:20;41.72;;;25.55;;
29546;SDS011;40782;47.264;11.330;2023-01-28T02:56:56;36.28;;;24.15;;
29546;SDS011;40782;47.264;11.330;2023-01-28T02:59:34;38.85;;;25.13;;
29546;SDS011;40782;47.264;11.330;2023-01-28T03:02:09;37.33;;;24.80;;
29546;SDS011;40782;47.264;11.330;2023-01-28T03:04:42;38.45;;;23.90;;
29546;SDS011;40782;47.264;11.330;2023-01-28T03:07:15;37.47;;;24.80;;
29546;SDS011;40782;47.264;11.330;2023-01-28T03:09:44;38.53;;;24.38;;
29546;SDS011;40782;47.264;11.330;2023-01-28T03:12:13;38.83;;;24.67;;
29546;SDS011;40782;47.264;11.330;2023-01-28T03:15:05;38.00;;;24.08;;
29546;SDS011;40782;47.264;11.330;2023-01-28T03:17:54;34.40;;;22.75;;
29546;SDS011;40782;47.264;11.330;2023-01-28T03:20:49;38.55;;;24.98;;
29546;SDS011;40782;47.264;11.330;2023-01-28T03:23:42;35.83;;;24.10;;
29546;SDS011;40782;47.264;11.330;2023-01-28T03:26:32;36.33;;;23.63;;
29546;SDS011;40782;47.264;11.330;2023-01-28T03:29:21;37.15;;;25.25;;
29546;SDS011;40782;47.264;11.330;2023-01-28T03:32:09;36.00;;;23.05;;
29546;SDS011;40782;47.264;11.330;2023-01-28T03:34:55;34.28;;;23.23;;
29546;SDS011;40782;47.264;11.330;2023-01-28T03:37:40;34.35;;;23.77;;
29546;SDS011;40782;47.264;11.330;2023-01-28T03:40:08;34.85;;;23.05;;
29546;SDS011;40782;47.264;11.330;2023-01-28T03:42:36;37.17;;;23.58;;
29546;SDS011;40782;47.264;11.330;2023-01-28T03:45:04;37.40;;;24.63;;
29546;SDS011;40782;47.264;11.330;2023-01-28T03:47:33;37.08;;;24.15;;
29546;SDS011;40782;47.264;11.330;2023-01-28T03:50:01;36.17;;;22.25;;
29546;SDS011;40782;47.264;11.330;2023-01-28T03:52:31;33.85;;;23.05;;
29546;SDS011;40782;47.264;11.330;2023-01-28T03:54:58;38.60;;;24.55;;
29546;SDS011;40782;47.264;11.330;2023-01-28T03:57:27;39.47;;;23.73;;
29546;SDS011;40782;47.264;11.330;2023-01-28T03:59:57;35.70;;;23.33;;
29546;SDS011;40782;47.264;11.330;2023-01-28T04:02:25;38.70;;;24.08;;
29546;SDS011;40782;47.264;11.330;2023-01-28T04:04:53;35.75;;;23.10;;
29546;SDS011;40782;47.264;11.330;2023-01-28T04:07:23;37.83;;;24.13;;
29546;SDS011;40782;47.264;11.330;2023-01-28T04:09:50;37.13;;;23.27;;
29546;SDS011;40782;47.264;11.330;2023-01-28T04:12:17;39.78;;;24.40;;
29546;SDS011;40782;47.264;11.330;2023-01-28T04:14:44;38.85;;;25.17;;
29546;SDS011;40782;47.264;11.330;2023-01-28T04:17:11;39.78;;;25.17;;
29546;SDS011;40782;47.264;11.330;2023-01-28T04:19:38;38.75;;;25.17;;
29546;SDS011;40782;47.264;11.330;2023-01-28T04:22:09;40.65;;;24.23;;
29546;SDS011;40782;47.264;11.330;2023-01-28T04:24:37;41.72;;;25.52;;
29546;SDS011;40782;47.264;11.330;2023-01-28T04:27:04;40.50;;;24.75;;
29546;SDS011;40782;47.264;11.330;2023-01-28T04:29:32;35.78;;;24.38;;
29546;SDS011;40782;47.264;11.330;2023-01-28T04:31:59;36.10;;;23.63;;
29546;SDS011;40782;47.264;11.330;2023-01-28T04:34:26;34.20;;;22.73;;
29546;SDS011;40782;47.264;11.330;2023-01-28T04:36:53;40.88;;;25.75;;
29546;SDS011;40782;47.264;11.330;2023-01-28T04:39:22;41.58;;;25.00;;
29546;SDS011;40782;47.264;11.330;2023-01-28T04:41:49;40.95;;;24.83;;
29546;SDS011;40782;47.264;11.330;2023-01-28T04:44:16;41.35;;;25.23;;
29546;SDS011;40782;47.264;11.330;2023-01-28T04:46:43;39.22;;;25.25;;
29546;SDS011;40782;47.264;11.330;2023-01-28T04:49:10;40.70;;;25.08;;
29546;SDS011;40782;47.264;11.330;2023-01-28T04:51:37;45.45;;;25.63;;
29546;SDS011;40782;47.264;11.330;2023-01-28T04:54:05;38.05;;;24.83;;
29546;SDS011;40782;47.264;11.330;2023-01-28T04:56:34;38.03;;;23.48;;
29546;SDS011;40782;47.264;11.330;2023-01-28T04:59:01;42.13;;;25.33;;
29546;SDS011;40782;47.264;11.330;2023-01-28T05:01:28;40.78;;;25.40;;
29546;SDS011;40782;47.264;11.330;2023-01-28T05:03:55;39.80;;;24.67;;
29546;SDS011;40782;47.264;11.330;2023-01-28T05:06:23;35.92;;;24.52;;
29546;SDS011;40782;47.264;11.330;2023-01-28T05:08:50;38.88;;;23.27;;
29546;SDS011;40782;47.264;11.330;2023-01-28T05:11:18;40.88;;;25.05;;
29546;SDS011;40782;47.264;11.330;2023-01-28T05:13:46;37.80;;;24.42;;
29546;SDS011;40782;47.264;11.330;2023-01-28T05:16:13;44.05;;;25.23;;
29546;SDS011;40782;47.264;11.330;2023-01-28T05:18:40;38.08;;;23.90;;
29546;SDS011;40782;47.264;11.330;2023-01-28T05:21:08;35.92;;;23.30;;
29546;SDS011;40782;47.264;11.330;2023-01-28T05:23:35;32.83;;;22.65;;
29546;SDS011;40782;47.264;11.330;2023-01-28T05:26:02;40.67;;;24.90;;
29546;SDS011;40782;47.264;11.330;2023-01-28T05:28:30;39.60;;;25.30;;
29546;SDS011;40782;47.264;11.330;2023-01-28T05:31:02;43.45;;;25.88;;
29546;SDS011;40782;47.264;11.330;2023-01-28T05:33:30;40.30;;;24.38;;
29546;SDS011;40782;47.264;11.330;2023-01-28T05:35:57;41.88;;;23.67;;
29546;SDS011;40782;47.264;11.330;2023-01-28T05:38:24;36.97;;;22.88;;
29546;SDS011;40782;47.264;11.330;2023-01-28T05:40:51;39.80;;;23.00;;
29546;SDS011;40782;47.264;11.330;2023-01-28T05:43:18;35.60;;;21.88;;
29546;SDS011;40782;47.264;11.330;2023-01-28T05:45:45;35.25;;;23.10;;
29546;SDS011;40782;47.264;11.330;2023-01-28T05:48:15;36.42;;;23.67;;
29546;SDS011;40782;47.264;11.330;2023-01-28T05:50:42;37.38;;;24.05;;
29546;SDS011;40782;47.264;11.330;2023-01-28T05:53:09;37.55;;;23.00;;
29546;SDS011;40782;47.264;11.330;2023-01-28T05:55:36;39.40;;;24.02;;
29546;SDS011;40782;47.264;11.330;2023-01-28T05:58:03;36.63;;;23.77;;
29546;SDS011;40782;47.264;11.330;2023-01-28T06:00:30;38.60;;;24.25;;
29546;SDS011;40782;47.264;11.330;2023-01-28T06:02:57;38.17;;;24.25;;
29546;SDS011;40782;47.264;11.330;2023-01-28T06:05:26;35.28;;;22.55;;
29546;SDS011;40782;47.264;11.330;2023-01-28T06:07:53;33.13;;;22.45;;
29546;SDS011;40782;47.264;11.330;2023-01-28T06:10:20;40.67;;;23.73;;
29546;SDS011;40782;47.264;11.330;2023-01-28T06:12:47;37.75;;;23.83;;
29546;SDS011;40782;47.264;11.330;2023-01-28T06:15:14;41.42;;;23.65;;
29546;SDS011;40782;47.264;11.330;2023-01-28T06:17:42;37.90;;;24.52;;
29546;SDS011;40782;47.264;11.330;2023-01-28T06:20:09;36.72;;;24.00;;
29546;SDS011;40782;47.264;11.330;2023-01-28T06:22:38;35.47;;;23.38;;
29546;SDS011;40782;47.264;11.330;2023-01-28T06:25:06;35.97;;;22.83;;
29546;SDS011;40782;47.264;11.330;2023-01-28T06:27:33;40.25;;;24.13;;
29546;SDS011;40782;47.264;11.330;2023-01-28T06:30:01;32.65;;;22.70;;
29546;SDS011;40782;47.264;11.330;2023-01-28T06:32:28;35.97;;;23.63;;
29546;SDS011;40782;47.264;11.330;2023-01-28T06:34:56;40.22;;;24.05;;
29546;SDS011;40782;47.264;11.330;2023-01-28T06:37:23;37.05;;;23.88;;
29546;SDS011;40782;47.264;11.330;2023-01-28T06:39:52;38.25;;;24.30;;
29546;SDS011;40782;47.264;11.330;2023-01-28T06:42:19;39.67;;;25.60;;
29546;SDS011;40782;47.264;11.330;2023-01-28T06:44:46;39.10;;;25.92;;
29546;SDS011;40782;47.264;11.330;2023-01-28T06:47:13;39.85;;;25.48;;
29546;SDS011;40782;47.264;11.330;2023-01-28T06:49:40;41.13;;;25.90;;
29546;SDS011;40782;47.264;11.330;2023-01-28T06:52:07;43.50;;;26.73;;
29546;SDS011;40782;47.264;11.330;2023-01-28T06:54:35;40.58;;;27.10;;
29546;SDS011;40782;47.264;11.330;2023-01-28T06:57:03;42.30;;;26.67;;
29546;SDS011;40782;47.264;11.330;2023-01-28T06:59:30;40.38;;;25.58;;
29546;SDS011;40782;47.264;11.330;2023-01-28T07:01:57;38.33;;;25.73;;
29546;SDS011;40782;47.264;11.330;2023-01-28T07:04:24;42.72;;;25.77;;
29546;SDS011;40782;47.264;11.330;2023-01-28T07:06:52;42.85;;;26.35;;
29546;SDS011;40782;47.264;11.330;2023-01-28T07:09:19;38.08;;;24.85;;
29546;SDS011;40782;47.264;11.330;2023-01-28T07:11:46;40.72;;;25.38;;
29546;SDS011;40782;47.264;11.330;2023-01-28T07:14:14;45.47;;;27.17;;
29546;SDS011;40782;47.264;11.330;2023-01-28T07:16:42;67.30;;;36.38;;
29546;SDS011;40782;47.264;11.330;2023-01-28T07:19:09;121.72;;;59.33;;
29546;SDS011;40782;47.264;11.330;2023-01-28T07:21:36;66.90;;;35.50;;
29546;SDS011;40782;47.264;11.330;2023-01-28T07:24:03;46.65;;;28.15;;
29546;SDS011;40782;47.264;11.330;2023-01-28T07:26:30;46.40;;;29.02;;
29546;SDS011;40782;47.264;11.330;2023-01-28T07:28:58;52.38;;;29.98;;
29546;SDS011;40782;47.264;11.330;2023-01-28T07:31:26;45.53;;;28.52;;
29546;SDS011;40782;47.264;11.330;2023-01-28T07:33:54;57.22;;;33.97;;
29546;SDS011;40782;47.264;11.330;2023-01-28T07:36:21;51.38;;;31.13;;
29546;SDS011;40782;47.264;11.330;2023-01-28T07:38:48;47.72;;;31.05;;
29546;SDS011;40782;47.264;11.330;2023-01-28T07:41:15;46.75;;;31.63;;
29546;SDS011;40782;47.264;11.330;2023-01-28T07:43:42;48.78;;;30.70;;
29546;SDS011;40782;47.264;11.330;2023-01-28T07:46:10;38.30;;;26.02;;
29546;SDS011;40782;47.264;11.330;2023-01-28T07:48:38;37.30;;;23.75;;
29546;SDS011;40782;47.264;11.330;2023-01-28T07:51:05;36.40;;;22.50;;
29546;SDS011;40782;47.264;11.330;2023-01-28T07:53:33;32.95;;;23.88;;
29546;SDS011;40782;47.264;11.330;2023-01-28T07:56:00;34.90;;;23.27;;
29546;SDS011;40782;47.264;11.330;2023-01-28T07:58:28;34.95;;;23.60;;
29546;SDS011;40782;47.264;11.330;2023-01-28T08:00:57;36.13;;;23.35;;
29546;SDS011;40782;47.264;11.330;2023-01-28T08:03:24;34.42;;;23.00;;
29546;SDS011;40782;47.264;11.330;2023-01-28T08:05:54;35.85;;;24.38;;
29546;SDS011;40782;47.264;11.330;2023-01-28T08:08:22;37.40;;;25.38;;
29546;SDS011;40782;47.264;11.330;2023-01-28T08:10:50;36.85;;;24.35;;
29546;SDS011;40782;47.264;11.330;2023-01-28T08:13:18;36.35;;;24.67;;
29546;SDS011;40782;47.264;11.330;2023-01-28T08:15:45;44.75;;;28.20;;
29546;SDS011;40782;47.264;11.330;2023-01-28T08:18:13;46.45;;;28.70;;
29546;SDS011;40782;47.264;11.330;2023-01-28T08:20:41;51.08;;;29.20;;
29546;SDS011;40782;47.264;11.330;2023-01-28T08:23:13;47.38;;;29.83;;
29546;SDS011;40782;47.264;11.330;2023-01-28T08:25:42;44.90;;;28.70;;
29546;SDS011;40782;47.264;11.330;2023-01-28T08:28:09;47.78;;;28.60;;
29546;SDS011;40782;47.264;11.330;2023-01-28T08:30:38;40.25;;;25.92;;
29546;SDS011;40782;47.264;11.330;2023-01-28T08:33:05;46.88;;;26.85;;
29546;SDS011;40782;47.264;11.330;2023-01-28T08:35:33;43.08;;;26.23;;
29546;SDS011;40782;47.264;11.330;2023-01-28T08:38:02;44.15;;;27.85;;
29546;SDS011;40782;47.264;11.330;2023-01-28T08:40:32;38.40;;;25.50;;
29546;SDS011;40782;47.264;11.330;2023-01-28T08:43:00;41.00;;;27.10;;
29546;SDS011;40782;47.264;11.330;2023-01-28T08:45:27;42.22;;;26.70;;
29546;SDS011;40782;47.264;11.330;2023-01-28T08:47:56;42.60;;;27.90;;
29546;SDS011;40782;47.264;11.330;2023-01-28T08:50:27;44.90;;;29.25;;
29546;SDS011;40782;47.264;11.330;2023-01-28T08:52:57;45.28;;;29.75;;
29546;SDS011;40782;47.264;11.330;2023-01-28T08:55:26;48.42;;;28.85;;
29546;SDS011;40782;47.264;11.330;2023-01-28T08:57:55;40.80;;;27.25;;
29546;SDS011;40782;47.264;11.330;2023-01-28T09:00:22;44.33;;;28.58;;
29546;SDS011;40782;47.264;11.330;2023-01-28T09:02:50;45.35;;;27.55;;
29546;SDS011;40782;47.264;11.330;2023-01-28T09:05:17;46.53;;;29.13;;
29546;SDS011;40782;47.264;11.330;2023-01-28T09:07:45;44.72;;;29.33;;
29546;SDS011;40782;47.264;11.330;2023-01-28T09:10:12;40.50;;;28.33;;
29546;SDS011;40782;47.264;11.330;2023-01-28T09:12:40;47.85;;;28.48;;
29546;SDS011;40782;47.264;11.330;2023-01-28T09:15:09;44.45;;;28.95;;
29546;SDS011;40782;47.264;11.330;2023-01-28T09:17:37;42.92;;;27.25;;
29546;SDS011;40782;47.264;11.330;2023-01-28T09:20:05;44.47;;;29.20;;
29546;SDS011;40782;47.264;11.330;2023-01-28T09:22:33;41.22;;;28.45;;
29546;SDS011;40782;47.264;11.330;2023-01-28T09:25:01;46.83;;;28.80;;
29546;SDS011;40782;47.264;11.330;2023-01-28T09:27:29;45.08;;;29.08;;
29546;SDS011;40782;47.264;11.330;2023-01-28T09:29:57;43.90;;;28.45;;
29546;SDS011;40782;47.264;11.330;2023-01-28T09:32:25;42.50;;;28.75;;
29546;SDS011;40782;47.264;11.330;2023-01-28T09:34:53;43.50;;;28.60;;
29546;SDS011;40782;47.264;11.330;2023-01-28T09:37:20;44.42;;;29.20;;
29546;SDS011;40782;47.264;11.330;2023-01-28T09:39:47;47.92;;;28.83;;
29546;SDS011;40782;47.264;11.330;2023-01-28T09:42:18;44.30;;;28.35;;
29546;SDS011;40782;47.264;11.330;2023-01-28T09:44:58;44.78;;;28.52;;
29546;SDS011;40782;47.264;11.330;2023-01-28T09:47:31;42.67;;;28.60;;
29546;SDS011;40782;47.264;11.330;2023-01-28T09:50:02;48.70;;;30.67;;
29546;SDS011;40782;47.264;11.330;2023-01-28T09:52:33;40.77;;;28.00;;
29546;SDS011;40782;47.264;11.330;2023-01-28T09:55:03;42.22;;;28.23;;
29546;SDS011;40782;47.264;11.330;2023-01-28T09:57:36;43.95;;;28.63;;
29546;SDS011;40782;47.264;11.330;2023-01-28T10:00:10;43.50;;;28.10;;
29546;SDS011;40782;47.264;11.330;2023-01-28T10:02:44;43.20;;;29.27;;
29546;SDS011;40782;47.264;11.330;2023-01-28T10:05:31;46.20;;;29.30;;
29546;SDS011;40782;47.264;11.330;2023-01-28T10:08:06;45.92;;;29.30;;
29546;SDS011;40782;47.264;11.330;2023-01-28T10:10:46;40.67;;;26.88;;
29546;SDS011;40782;47.264;11.330;2023-01-28T10:13:19;41.70;;;27.13;;
29546;SDS011;40782;47.264;11.330;2023-01-28T10:16:03;42.72;;;26.27;;
29546;SDS011;40782;47.264;11.330;2023-01-28T10:18:40;40.60;;;25.90;;
29546;SDS011;40782;47.264;11.330;2023-01-28T10:21:14;40.40;;;25.15;;
29546;SDS011;40782;47.264;11.330;2023-01-28T10:23:48;41.80;;;25.80;;
29546;SDS011;40782;47.264;11.330;2023-01-28T10:26:23;37.03;;;24.05;;
29546;SDS011;40782;47.264;11.330;2023-01-28T10:28:55;34.33;;;22.90;;
29546;SDS011;40782;47.264;11.330;2023-01-28T10:31:28;35.17;;;23.05;;
29546;SDS011;40782;47.264;11.330;2023-01-28T10:33:59;36.97;;;23.35;;
29546;SDS011;40782;47.264;11.330;2023-01-28T10:36:28;36.40;;;23.35;;
29546;SDS011;40782;47.264;11.330;2023-01-28T10:38:55;35.15;;;23.92;;
29546;SDS011;40782;47.264;11.330;2023-01-28T10:41:23;36.15;;;24.02;;
29546;SDS011;40782;47.264;11.330;2023-01-28T10:43:50;33.10;;;23.45;;
29546;SDS011;40782;47.264;11.330;2023-01-28T10:46:18;32.88;;;22.23;;
29546;SDS011;40782;47.264;11.330;2023-01-28T10:48:53;33.50;;;23.27;;
29546;SDS011;40782;47.264;11.330;2023-01-28T10:51:32;31.75;;;22.02;;
29546;SDS011;40782;47.264;11.330;2023-01-28T10:54:00;35.85;;;22.75;;
29546;SDS011;40782;47.264;11.330;2023-01-28T10:56:29;36.10;;;23.40;;
29546;SDS011;40782;47.264;11.330;2023-01-28T10:58:59;34.40;;;23.45;;
29546;SDS011;40782;47.264;11.330;2023-01-28T11:01:38;33.72;;;23.52;;
29546;SDS011;40782;47.264;11.330;2023-01-28T11:04:13;33.42;;;22.63;;
29546;SDS011;40782;47.264;11.330;2023-01-28T11:06:52;32.60;;;22.48;;
29546;SDS011;40782;47.264;11.330;2023-01-28T11:09:21;33.47;;;21.48;;
29546;SDS011;40782;47.264;11.330;2023-01-28T11:11:49;33.35;;;22.52;;
29546;SDS011;40782;47.264;11.330;2023-01-28T11:14:20;31.60;;;22.02;;
29546;SDS011;40782;47.264;11.330;2023-01-28T11:16:49;31.67;;;21.77;;
29546;SDS011;40782;47.264;11.330;2023-01-28T11:19:18;35.67;;;21.92;;
29546;SDS011;40782;47.264;11.330;2023-01-28T11:21:47;34.60;;;23.80;;
29546;SDS011;40782;47.264;11.330;2023-01-28T11:24:17;32.67;;;22.80;;
29546;SDS011;40782;47.264;11.330;2023-01-28T11:26:48;34.20;;;23.10;;
29546;SDS011;40782;47.264;11.330;2023-01-28T11:29:21;34.40;;;22.50;;
29546;SDS011;40782;47.264;11.330;2023-01-28T11:31:52;32.67;;;22.55;;
29546;SDS011;40782;47.264;11.330;2023-01-28T11:34:19;35.45;;;24.23;;
29546;SDS011;40782;47.264;11.330;2023-01-28T11:36:52;29.83;;;21.55;;
29546;SDS011;40782;47.264;11.330;2023-01-28T11:39:23;31.13;;;21.42;;
29546;SDS011;40782;47.264;11.330;2023-01-28T11:44:20;32.05;;;21.77;;
29546;SDS011;40782;47.264;11.330;2023-01-28T11:47:02;36.22;;;23.52;;
29546;SDS011;40782;47.264;11.330;2023-01-28T11:49:55;29.23;;;20.58;;
29546;SDS011;40782;47.264;11.330;2023-01-28T11:52:35;34.00;;;21.70;;
29546;SDS011;40782;47.264;11.330;2023-01-28T11:55:22;32.70;;;21.52;;
29546;SDS011;40782;47.264;11.330;2023-01-28T11:58:04;37.10;;;22.17;;
29546;SDS011;40782;47.264;11.330;2023-01-28T12:00:42;31.10;;;20.90;;
29546;SDS011;40782;47.264;11.330;2023-01-28T12:03:22;30.85;;;20.35;;
29546;SDS011;40782;47.264;11.330;2023-01-28T12:06:11;28.90;;;19.58;;
29546;SDS011;40782;47.264;11.330;2023-01-28T12:09:03;26.08;;;18.00;;
29546;SDS011;40782;47.264;11.330;2023-01-28T12:11:43;28.73;;;17.98;;
29546;SDS011;40782;47.264;11.330;2023-01-28T12:14:55;25.60;;;17.85;;
29546;SDS011;40782;47.264;11.330;2023-01-28T12:17:35;25.38;;;18.05;;
29546;SDS011;40782;47.264;11.330;2023-01-28T12:20:12;28.40;;;18.67;;
29546;SDS011;40782;47.264;11.330;2023-01-28T12:22:58;32.45;;;18.13;;
29546;SDS011;40782;47.264;11.330;2023-01-28T12:25:46;34.95;;;19.27;;
29546;SDS011;40782;47.264;11.330;2023-01-28T12:28:30;26.15;;;18.77;;
29546;SDS011;40782;47.264;11.330;2023-01-28T12:31:13;33.50;;;21.48;;
29546;SDS011;40782;47.264;11.330;2023-01-28T12:37:06;31.35;;;17.73;;
29546;SDS011;40782;47.264;11.330;2023-01-28T12:39:44;28.38;;;17.67;;
29546;SDS011;40782;47.264;11.330;2023-01-28T12:42:26;23.17;;;17.27;;
29546;SDS011;40782;47.264;11.330;2023-01-28T12:45:03;29.20;;;18.45;;
29546;SDS011;40782;47.264;11.330;2023-01-28T12:47:41;31.08;;;17.88;;
29546;SDS011;40782;47.264;11.330;2023-01-28T12:50:15;24.13;;;18.15;;
29546;SDS011;40782;47.264;11.330;2023-01-28T12:52:48;26.27;;;19.02;;
29546;SDS011;40782;47.264;11.330;2023-01-28T12:55:19;26.73;;;19.35;;
29546;SDS011;40782;47.264;11.330;2023-01-28T12:57:55;28.52;;;19.83;;
29546;SDS011;40782;47.264;11.330;2023-01-28T13:00:26;28.30;;;20.10;;
29546;SDS011;40782;47.264;11.330;2023-01-28T13:02:57;30.40;;;20.35;;
29546;SDS011;40782;47.264;11.330;2023-01-28T13:05:36;26.77;;;20.00;;
29546;SDS011;40782;47.264;11.330;2023-01-28T13:08:09;31.58;;;21.23;;
29546;SDS011;40782;47.264;11.330;2023-01-28T13:10:43;33.50;;;22.08;;
29546;SDS011;40782;47.264;11.330;2023-01-28T13:13:14;31.00;;;22.60;;
29546;SDS011;40782;47.264;11.330;2023-01-28T13:15:45;34.40;;;21.85;;
29546;SDS011;40782;47.264;11.330;2023-01-28T13:18:28;32.08;;;21.33;;
29546;SDS011;40782;47.264;11.330;2023-01-28T13:20:57;30.60;;;21.70;;
29546;SDS011;40782;47.264;11.330;2023-01-28T13:23:26;33.08;;;21.90;;
29546;SDS011;40782;47.264;11.330;2023-01-28T13:26:08;31.30;;;21.92;;
29546;SDS011;40782;47.264;11.330;2023-01-28T13:28:53;31.92;;;21.15;;
29546;SDS011;40782;47.264;11.330;2023-01-28T13:31:36;27.77;;;20.30;;
29546;SDS011;40782;47.264;11.330;2023-01-28T13:34:07;27.63;;;20.58;;
29546;SDS011;40782;47.264;11.330;2023-01-28T13:36:42;30.55;;;20.23;;
29546;SDS011;40782;47.264;11.330;2023-01-28T13:39:14;24.73;;;18.80;;
29546;SDS011;40782;47.264;11.330;2023-01-28T13:41:45;30.92;;;21.17;;
29546;SDS011;40782;47.264;11.330;2023-01-28T13:44:17;32.28;;;20.55;;
29546;SDS011;40782;47.264;11.330;2023-01-28T13:46:48;29.35;;;19.73;;
29546;SDS011;40782;47.264;11.330;2023-01-28T13:49:16;27.67;;;19.77;;
29546;SDS011;40782;47.264;11.330;2023-01-28T13:51:51;28.38;;;18.10;;
29546;SDS011;40782;47.264;11.330;2023-01-28T13:54:24;23.25;;;17.10;;
29546;SDS011;40782;47.264;11.330;2023-01-28T13:57:02;24.48;;;18.38;;
29546;SDS011;40782;47.264;11.330;2023-01-28T13:59:48;22.23;;;16.85;;
29546;SDS011;40782;47.264;11.330;2023-01-28T14:02:31;23.05;;;17.65;;
29546;SDS011;40782;47.264;11.330;2023-01-28T14:05:24;25.65;;;17.42;;
29546;SDS011;40782;47.264;11.330;2023-01-28T14:11:17;22.63;;;14.23;;
29546;SDS011;40782;47.264;11.330;2023-01-28T14:14:08;20.40;;;15.27;;
29546;SDS011;40782;47.264;11.330;2023-01-28T14:16:50;25.02;;;16.08;;
29546;SDS011;40782;47.264;11.330;2023-01-28T14:19:24;26.90;;;16.13;;
29546;SDS011;40782;47.264;11.330;2023-01-28T14:21:55;22.95;;;15.02;;
29546;SDS011;40782;47.264;11.330;2023-01-28T14:24:22;18.10;;;14.23;;
29546;SDS011;40782;47.264;11.330;2023-01-28T14:26:52;19.42;;;13.50;;
29546;SDS011;40782;47.264;11.330;2023-01-28T14:29:32;17.88;;;13.27;;
29546;SDS011;40782;47.264;11.330;2023-01-28T14:32:15;25.35;;;13.15;;
29546;SDS011;40782;47.264;11.330;2023-01-28T14:34:46;21.15;;;13.23;;
29546;SDS011;40782;47.264;11.330;2023-01-28T14:37:14;18.08;;;13.55;;
29546;SDS011;40782;47.264;11.330;2023-01-28T14:39:44;17.92;;;14.38;;
29546;SDS011;40782;47.264;11.330;2023-01-28T14:42:17;16.42;;;13.30;;